createdAt,value
2019-05-30T00:03:34.558Z,1.10
2019-05-30T00:07:36.335Z,1.10
2019-05-30T00:11:38.506Z,1.20
2019-05-30T00:15:40.248Z,0.80
2019-05-30T00:19:42.406Z,1.10
2019-05-30T00:23:44.578Z,1.60
2019-05-30T00:27:47.048Z,1.02
2019-05-30T00:31:48.863Z,1.50
2019-05-30T00:35:50.909Z,2.33
2019-05-30T00:39:52.655Z,1.45
2019-05-30T00:43:55.894Z,1.70
2019-05-30T00:47:58.141Z,1.75
2019-05-30T00:52:00.537Z,1.62
2019-05-30T00:56:03.204Z,1.52
2019-05-30T01:00:05.238Z,1.82
2019-05-30T01:04:07.403Z,1.60
2019-05-30T01:08:09.150Z,1.57
2019-05-30T01:12:11.793Z,1.70
2019-05-30T01:16:13.567Z,1.55
2019-05-30T01:20:16.745Z,1.35
2019-05-30T01:24:18.584Z,1.32
2019-05-30T01:28:20.716Z,1.57
2019-05-30T01:32:22.443Z,1.50
2019-05-30T01:36:24.217Z,1.80
2019-05-30T01:40:26.296Z,1.47
2019-05-30T01:44:28.026Z,1.52
2019-05-30T01:48:29.817Z,1.67
2019-05-30T01:52:31.608Z,1.32
2019-05-30T01:56:34.460Z,1.40
2019-05-30T02:00:37.625Z,1.80
2019-05-30T02:04:40.010Z,1.45
2019-05-30T02:08:42.090Z,1.60
2019-05-30T02:12:43.948Z,1.92
2019-05-30T02:16:46.164Z,1.52
2019-05-30T02:25:32.357Z,1.40
2019-05-30T02:29:34.249Z,1.60
2019-05-30T02:33:36.013Z,1.90
2019-05-30T02:37:37.832Z,1.70
2019-05-30T02:41:39.597Z,1.82
2019-05-30T02:45:41.680Z,1.32
2019-05-30T02:49:43.413Z,1.70
2019-05-30T02:53:45.433Z,1.65
2019-05-30T02:57:47.187Z,1.98
2019-05-30T03:02:01.218Z,1.57
2019-05-30T03:05:52.716Z,1.60
2019-05-30T03:09:54.679Z,1.70
2019-05-30T03:13:56.439Z,1.70
2019-05-30T03:17:58.359Z,1.67
2019-05-30T03:22:00.193Z,1.62
2019-05-30T03:26:02.605Z,2.27
2019-05-30T03:30:13.358Z,1.90
2019-05-30T03:34:18.236Z,1.80
2019-05-30T03:38:15.474Z,1.60
2019-05-30T03:42:16.760Z,1.62
2019-05-30T03:46:22.578Z,2.10
2019-05-30T03:50:28.149Z,1.80
2019-05-30T03:54:30.189Z,2.47
2019-05-30T03:59:14.973Z,1.85
2019-05-30T04:03:40.694Z,1.80
2019-05-30T04:07:49.001Z,1.85
2019-05-30T04:12:03.111Z,1.90
2019-05-30T04:16:06.795Z,2.12
2019-05-30T04:20:09.362Z,2.00
2019-05-30T04:24:14.086Z,2.37
2019-05-30T04:28:16.347Z,2.25
2019-05-30T04:32:19.377Z,2.33
2019-05-30T04:36:21.122Z,2.30
2019-05-30T04:40:22.921Z,1.80
2019-05-30T04:44:24.659Z,1.90
2019-05-30T04:48:26.505Z,2.35
2019-05-30T04:52:28.256Z,2.35
2019-05-30T04:56:30.160Z,2.55
2019-05-30T05:00:32.046Z,2.25
2019-05-30T05:04:33.926Z,2.17
2019-05-30T05:08:35.737Z,2.20
2019-05-30T05:12:38.180Z,2.10
2019-05-30T05:16:39.949Z,2.75
2019-05-30T05:20:41.690Z,2.00
2019-05-30T05:24:43.516Z,2.30
2019-05-30T05:28:45.540Z,2.50
2019-05-30T05:32:47.655Z,2.80
2019-05-30T05:36:49.399Z,2.22
2019-05-30T05:40:51.144Z,4.15
2019-05-30T05:44:52.960Z,2.33
2019-05-30T05:48:54.739Z,3.33
2019-05-30T05:52:56.887Z,4.45
2019-05-30T05:56:58.713Z,7.47
2019-05-30T06:01:00.466Z,3.25
2019-05-30T06:05:02.717Z,2.83
2019-05-30T06:09:05.184Z,2.47
2019-05-30T06:13:07.347Z,2.77
2019-05-30T06:17:09.430Z,3.00
2019-05-30T06:21:11.494Z,2.02
2019-05-30T06:25:13.777Z,2.40
2019-05-30T06:29:15.492Z,2.35
2019-05-30T06:33:18.572Z,1.90
2019-05-30T06:37:21.056Z,2.47
2019-05-30T06:41:23.533Z,2.40
2019-05-30T06:45:26.720Z,2.30
2019-05-30T06:49:29.077Z,2.15
2019-05-30T06:53:31.515Z,2.20
2019-05-30T06:57:33.347Z,1.65
2019-05-30T07:01:35.248Z,1.57
2019-05-30T07:05:37.595Z,1.60
2019-05-30T07:09:39.757Z,1.95
2019-05-30T07:13:42.343Z,1.47
2019-05-30T07:17:44.213Z,2.00
2019-05-30T07:21:45.958Z,2.15
2019-05-30T07:25:48.014Z,2.45
2019-05-30T07:29:49.823Z,2.85
2019-05-30T07:33:51.559Z,3.42
2019-05-30T07:37:53.271Z,2.85
2019-05-30T07:42:05.673Z,2.90
2019-05-30T07:45:58.832Z,2.58
2019-05-30T07:50:02.307Z,2.98
2019-05-30T07:54:04.495Z,2.75
2019-05-30T07:58:06.652Z,2.22
2019-05-30T08:02:08.396Z,2.30
2019-05-30T08:06:10.145Z,2.25
2019-05-30T08:10:12.488Z,2.40
2019-05-30T08:14:14.227Z,2.40
2019-05-30T08:18:15.939Z,2.65
2019-05-30T08:22:17.684Z,2.37
2019-05-30T08:26:19.452Z,2.45
2019-05-30T08:30:21.832Z,2.55
2019-05-30T08:34:23.979Z,1.82
2019-05-30T08:38:25.787Z,2.10
2019-05-30T08:42:28.427Z,1.90
2019-05-30T08:46:32.260Z,2.08
2019-05-30T08:50:34.271Z,2.12
2019-05-30T08:54:36.454Z,2.12
2019-05-30T08:58:38.793Z,2.35
2019-05-30T09:02:40.986Z,2.37
2019-05-30T09:06:44.186Z,2.25
2019-05-30T09:10:46.559Z,2.37
2019-05-30T09:14:48.275Z,2.22
2019-05-30T09:18:50.029Z,1.87
2019-05-30T09:22:51.839Z,2.37
2019-05-30T09:26:53.685Z,2.00
2019-05-30T09:30:55.830Z,1.75
2019-05-30T09:34:58.021Z,1.87
2019-05-30T09:39:00.115Z,2.20
2019-05-30T09:43:02.328Z,1.92
2019-05-30T09:47:04.194Z,1.67
2019-05-30T09:51:06.009Z,1.85
2019-05-30T09:55:08.468Z,2.47
2019-05-30T09:59:10.297Z,1.47
2019-05-30T10:03:12.139Z,1.50
2019-05-30T10:07:13.975Z,1.57
2019-05-30T10:11:16.256Z,1.70
2019-05-30T10:15:18.864Z,2.55
2019-05-30T10:19:20.980Z,1.80
2019-05-30T10:23:22.784Z,1.77
2019-05-30T10:27:24.860Z,1.62
2019-05-30T10:31:27.031Z,1.70
2019-05-30T10:35:30.263Z,1.37
2019-05-30T10:39:32.149Z,1.42
2019-05-30T10:43:33.926Z,1.77
2019-05-30T10:47:36.161Z,2.72
2019-05-30T10:51:38.181Z,2.77
2019-05-30T10:55:40.063Z,3.17
2019-05-30T10:59:42.586Z,1.62
2019-05-30T11:03:44.527Z,1.75
2019-05-30T11:08:06.078Z,1.25
2019-05-30T11:12:06.285Z,1.72
2019-05-30T11:16:08.033Z,1.32
2019-05-30T11:20:10.762Z,1.65
2019-05-30T11:24:12.964Z,1.30
2019-05-30T11:28:14.812Z,1.87
2019-05-30T11:32:16.691Z,2.30
2019-05-30T11:36:18.412Z,1.60
2019-05-30T11:40:20.206Z,1.82
2019-05-30T11:44:21.997Z,1.40
2019-05-30T11:48:24.223Z,1.47
2019-05-30T11:52:26.041Z,1.10
2019-05-30T11:56:27.814Z,1.45
2019-05-30T12:00:29.872Z,1.30
2019-05-30T12:04:32.136Z,0.98
2019-05-30T12:08:33.928Z,1.25
2019-05-30T12:12:35.716Z,0.90
2019-05-30T12:16:38.207Z,1.35
2019-05-30T12:20:40.556Z,1.10
2019-05-30T12:24:42.782Z,1.20
2019-05-30T12:28:44.944Z,1.47
2019-05-30T12:32:46.924Z,2.12
2019-05-30T12:36:49.027Z,1.60
2019-05-30T12:40:50.781Z,1.77
2019-05-30T12:44:53.369Z,1.70
2019-05-30T12:48:57.216Z,2.00
2019-05-30T12:53:00.795Z,2.00
2019-05-30T12:57:03.885Z,1.60
2019-05-30T13:01:07.043Z,1.70
2019-05-30T13:05:10.201Z,1.67
2019-05-30T13:09:12.506Z,1.90
2019-05-30T13:13:14.932Z,2.25
2019-05-30T13:17:16.916Z,1.82
2019-05-30T13:21:19.511Z,1.47
2019-05-30T13:25:23.260Z,2.00
2019-05-30T13:29:25.182Z,1.80
2019-05-30T13:33:27.080Z,1.82
2019-05-30T13:37:28.859Z,1.87
2019-05-30T13:41:30.711Z,2.37
2019-05-30T13:45:33.182Z,2.95
2019-05-30T13:49:35.008Z,2.65
2019-05-30T13:53:36.806Z,3.17
2019-05-30T13:57:39.045Z,3.33
2019-05-30T14:01:40.787Z,3.00
2019-05-30T14:05:42.679Z,2.87
2019-05-30T14:09:44.489Z,3.42
2019-05-30T14:13:46.559Z,3.40
2019-05-30T14:17:48.406Z,4.40
2019-05-30T14:21:50.198Z,4.15
2019-05-30T14:25:52.658Z,3.47
2019-05-30T14:29:54.628Z,3.55
2019-05-30T14:33:56.568Z,3.55
2019-05-30T14:37:58.515Z,3.45
2019-05-30T14:42:00.252Z,3.92
2019-05-30T14:46:02.021Z,3.70
2019-05-30T14:50:04.638Z,3.50
2019-05-30T14:54:06.874Z,4.50
2019-05-30T14:58:11.616Z,3.85
2019-05-30T15:02:14.204Z,3.72
2019-05-30T15:06:18.397Z,3.83
2019-05-30T15:10:22.522Z,3.35
2019-05-30T15:14:24.346Z,3.10
2019-05-30T15:18:27.047Z,3.40
2019-05-30T15:22:28.911Z,3.52
2019-05-30T15:26:30.837Z,3.90
2019-05-30T15:30:33.156Z,3.77
2019-05-30T15:34:36.244Z,3.52
2019-05-30T15:38:38.959Z,4.33
2019-05-30T15:42:44.586Z,5.55
2019-05-30T15:46:46.450Z,4.00
2019-05-30T15:50:48.423Z,4.10
2019-05-30T15:54:50.467Z,3.52
2019-05-30T15:59:12.102Z,3.62
2019-05-30T16:03:14.675Z,5.70
2019-05-30T16:07:16.800Z,4.28
2019-05-30T16:11:19.636Z,4.25
2019-05-30T16:15:21.759Z,4.35
2019-05-30T16:19:26.461Z,4.22
2019-05-30T16:23:27.624Z,5.03
2019-05-30T16:27:31.239Z,4.47
2019-05-30T16:31:33.112Z,4.60
2019-05-30T16:35:35.138Z,4.03
2019-05-30T16:39:37.267Z,4.40
2019-05-30T16:43:38.984Z,4.03
2019-05-30T16:47:40.732Z,4.12
2019-05-30T16:51:42.512Z,4.25
2019-05-30T16:55:44.292Z,4.03
2019-05-30T16:59:46.039Z,4.37
2019-05-30T17:03:47.819Z,3.90
2019-05-30T17:07:49.647Z,4.95
2019-05-30T17:11:51.443Z,4.03
2019-05-30T17:15:53.899Z,4.10
2019-05-30T17:19:56.009Z,4.22
2019-05-30T17:23:57.909Z,3.98
2019-05-30T17:27:59.673Z,4.00
2019-05-30T17:32:01.461Z,4.17
2019-05-30T17:36:03.293Z,4.75
2019-05-30T17:40:07.382Z,4.50
2019-05-30T17:44:09.124Z,4.92
2019-05-30T17:48:16.526Z,4.20
2019-05-30T17:52:15.340Z,3.98
2019-05-30T17:56:17.515Z,4.10
2019-05-30T18:00:20.454Z,4.97
2019-05-30T18:04:22.492Z,4.20
2019-05-30T18:08:24.824Z,4.60
2019-05-30T18:12:27.098Z,3.72
2019-05-30T18:16:29.301Z,3.55
2019-05-30T18:20:45.579Z,3.98
2019-05-30T18:24:35.734Z,3.87
2019-05-30T18:28:38.353Z,4.50
2019-05-30T18:32:40.277Z,4.17
2019-05-30T18:36:41.541Z,3.72
2019-05-30T18:40:43.333Z,4.00
2019-05-30T18:44:45.255Z,3.92
2019-05-30T18:48:47.214Z,4.08
2019-05-30T18:52:49.019Z,4.17
2019-05-30T18:56:51.267Z,3.77
2019-05-30T19:00:53.705Z,3.92
2019-05-30T19:04:56.399Z,3.75
2019-05-30T19:09:00.106Z,3.58
2019-05-30T19:13:02.597Z,4.55
2019-05-30T19:17:04.526Z,3.98
2019-05-30T19:21:07.343Z,4.10
2019-05-30T19:25:09.466Z,4.70
2019-05-30T19:29:11.796Z,4.22
2019-05-30T19:33:13.591Z,4.15
2019-05-30T19:37:15.346Z,3.58
2019-05-30T19:41:17.208Z,3.30
2019-05-30T19:45:19.802Z,3.37
2019-05-30T19:49:21.764Z,3.98
2019-05-30T19:53:23.587Z,3.10
2019-05-30T19:57:25.609Z,2.77
2019-05-30T20:01:27.501Z,2.87
2019-05-30T20:05:32.562Z,2.72
2019-05-30T20:09:34.599Z,3.70
2019-05-30T20:13:39.235Z,3.10
2019-05-30T20:17:45.219Z,3.92
2019-05-30T20:21:48.885Z,3.87
2019-05-30T20:25:51.970Z,3.95
2019-05-30T20:29:54.156Z,4.55
2019-05-30T20:33:56.592Z,4.35
2019-05-30T20:38:01.353Z,3.58
2019-05-30T20:42:18.226Z,3.33
2019-05-30T20:46:22.343Z,3.30
2019-05-30T20:50:14.864Z,2.85
2019-05-30T20:54:16.599Z,2.60
2019-05-30T20:58:19.817Z,2.90
2019-05-30T21:02:23.470Z,3.00
2019-05-30T21:06:26.470Z,2.70
2019-05-30T21:10:29.749Z,3.02
2019-05-30T21:14:33.296Z,3.37
2019-05-30T21:18:37.727Z,2.40
2019-05-30T21:22:40.627Z,2.67
2019-05-30T21:26:42.856Z,2.80
2019-05-30T21:30:47.694Z,2.70
2019-05-30T21:34:50.163Z,2.70
2019-05-30T21:38:52.416Z,3.10
2019-05-30T21:43:05.171Z,3.02
2019-05-30T21:46:58.166Z,3.12
2019-05-30T21:51:00.405Z,3.27
2019-05-30T21:55:03.737Z,3.80
2019-05-30T21:59:07.005Z,3.33
2019-05-30T22:03:09.601Z,3.27
2019-05-30T22:07:11.506Z,3.10
2019-05-30T22:11:13.767Z,3.22
2019-05-30T22:15:16.284Z,3.05
2019-05-30T22:19:18.145Z,3.27
2019-05-30T22:23:20.026Z,3.22
2019-05-30T22:27:21.806Z,3.12
2019-05-30T22:31:23.660Z,3.20
2019-05-30T22:35:25.549Z,3.30
2019-05-30T22:39:27.882Z,3.95
2019-05-30T22:43:30.068Z,4.28
2019-05-30T22:47:32.285Z,3.42
2019-05-30T22:51:34.087Z,3.25
2019-05-30T22:55:36.889Z,3.17
2019-05-30T22:59:39.256Z,3.60
2019-05-30T23:03:41.876Z,3.35
2019-05-30T23:07:43.782Z,3.40
2019-05-30T23:11:45.644Z,3.15
2019-05-30T23:15:48.161Z,3.25
2019-05-30T23:19:51.378Z,4.20
2019-05-30T23:23:55.280Z,3.67
2019-05-30T23:27:57.643Z,3.75
2019-05-30T23:31:59.570Z,3.40
2019-05-30T23:36:01.311Z,3.40
2019-05-30T23:40:03.407Z,3.45
2019-05-30T23:44:11.271Z,3.47
2019-05-30T23:48:09.109Z,3.00
2019-05-30T23:52:10.979Z,3.55
2019-05-30T23:56:12.787Z,3.45
